Terminal Aerodrome Forecast
Issued by NWS Springfield, MO

Home | Current Version | Previous Version | Text Only | Print | Product List | Glossary On
Versions: 1 2 3 4 5 6 7 8 9 10 11 12 13 14 15 16 17 18 19 20 21 22 23 24 25 26 27 28 29 30 31 32
000
FTUS43 KSGF 242337
TAFSGF
TAF
KSGF 242337Z 2500/2524 28015G24KT 5SM -DZ OVC005
     FM250100 28013G23KT P6SM OVC004
     FM250200 28011G22KT P6SM BKN008
     FM250600 28007KT P6SM FEW250
     FM251400 VRB04KT P6SM SKC=

USA.gov is the U.S. government's official web portal to all federal, state and local government web resources and services.